• Join FlightAware (Why Join?)
  • Login
  • US Flag 
05:10AM EST


 

Airport Tracker/Info


-or-


 

Live Flight TrackerFlight Track Log ✈ SWA492 ✈ 18-May-2012 ✈ KLAX - KDEN

Flight Track Log - Related Links

Times and Time Zones

All times are in EDT time to prevent confusion due to time zone crossing. See the SWA492 flight status page for this flight to view local times or setup timezone preferences in your user account.

Time Position Orientation Groundspeed Altitude Reporting Facility
EDT Latitude Longitude Course Direction KTS MPH feet Rate Location/Type
01:40AM 33.9500 -118.4833 231° Southwest 202 232 2,300  Level Southern California TRACON
01:41AM 33.8919 -118.5686 177° South 237 273 4,800 2,160 Climbing Los Angeles Center
01:42AM 33.8147 -118.5639 163° South 240 276 7,400 2,460 Climbing Los Angeles Center
01:43AM 33.7339 -118.5342 120° Southeast 259 298 9,800 1,920 Climbing Los Angeles Center
01:44AM 33.6919 -118.4456 82° East 271 312 11,300 1,680 Climbing Los Angeles Center
01:45AM 33.7044 -118.3333 69° East 260 299 13,200 2,100 Climbing Los Angeles Center
01:46AM 33.7419 -118.2169 73° East 313 360 15,500 2,400 Climbing Los Angeles Center
01:47AM 33.7733 -118.0953 48° Northeast 329 379 18,000 2,100 Climbing Los Angeles Center
01:48AM 33.8478 -117.9969 36° Northeast 362 417 19,700 1,980 Climbing Los Angeles Center
01:49AM 33.9367 -117.9189 37° Northeast 377 434 22,000 2,100 Climbing Los Angeles Center
01:50AM 34.0297 -117.8356 41° Northeast 393 452 23,900 1,740 Climbing Los Angeles Center
01:51AM 34.1250 -117.7347 49° Northeast 407 468 25,500 1,560 Climbing Los Angeles Center
01:52AM 34.2036 -117.6258 49° Northeast 407 468 27,100 1,440 Climbing Los Angeles Center
01:53AM 34.2864 -117.5092 47° Northeast 433 498 28,400 1,320 Climbing Los Angeles Center
01:54AM 34.3753 -117.3947 49° Northeast 446 513 29,800 1,380 Climbing Los Angeles Center
01:55AM 34.4558 -117.2825 51° Northeast 446 513 31,200 1,560 Climbing Los Angeles Center
01:56AM 34.5278 -117.1753 59° Northeast 455 524 33,000 1,500 Climbing Los Angeles Center
01:57AM 34.5933 -117.0447 62° Northeast 455 524 34,300 1,260 Climbing Los Angeles Center
01:58AM 34.6528 -116.9092 62° Northeast 450 518 35,600 1,200 Climbing Los Angeles Center
01:59AM 34.7100 -116.7756 60° Northeast 445 512 36,700 660 Climbing Los Angeles Center
02:00AM 34.7733 -116.6422 58° Northeast 445 512 37,000 120 Climbing Los Angeles Center
02:01AM 34.8406 -116.5111 60° Northeast 445 512 37,000  Level Los Angeles Center
02:02AM 34.9033 -116.3797 60° Northeast 450 518 37,000  Level Los Angeles Center
02:03AM 34.9664 -116.2456 60° Northeast 450 518 37,000  Level Los Angeles Center
02:04AM 35.0289 -116.1136 58° Northeast 445 512 37,000  Level Los Angeles Center
02:05AM 35.0956 -115.9817 60° Northeast 445 512 37,000  Level Los Angeles Center
02:06AM 35.1581 -115.8469 60° Northeast 445 512 37,000  Level Los Angeles Center
02:07AM 35.2203 -115.7144 59° Northeast 445 512 37,000  Level Los Angeles Center
02:08AM 35.2928 -115.5639 60° Northeast 452 520 37,000  Level Los Angeles Center
02:09AM 35.3567 -115.4286 60° Northeast 457 526 37,000  Level Los Angeles Center
02:10AM 35.4206 -115.2928 60° Northeast 457 526 37,000  Level Los Angeles Center
02:11AM 35.4842 -115.1569 60° Northeast 457 526 37,000  Level Los Angeles Center
02:12AM 35.5478 -115.0236 60° Northeast 457 526 37,000  Level Los Angeles Center
02:13AM 35.6111 -114.8872 60° Northeast 457 526 37,000  Level Los Angeles Center
02:14AM 35.6744 -114.7508 60° Northeast 452 520 37,000  Level Los Angeles Center
02:15AM 35.7375 -114.6167 60° Northeast 452 520 37,000  Level Los Angeles Center
02:16AM 35.8003 -114.4800 61° Northeast 452 520 37,000  Level Los Angeles Center
02:17AM 35.8631 -114.3403 61° Northeast 452 520 37,000  Level Los Angeles Center
02:18AM 35.9258 -114.2028 60° Northeast 452 520 37,000  Level Los Angeles Center
02:19AM 35.9903 -114.0628 61° Northeast 452 520 37,000  Level Los Angeles Center
02:20AM 36.0525 -113.9225 60° Northeast 452 520 37,000  Level Los Angeles Center
02:21AM 36.1167 -113.7844 62° Northeast 457 526 37,000  Level Los Angeles Center
02:22AM 36.1764 -113.6439 61° Northeast 462 532 37,000  Level Los Angeles Center
02:23AM 36.2403 -113.5003 60° Northeast 467 537 37,000  Level Los Angeles Center
02:24AM 36.3039 -113.3614 62° Northeast 462 532 37,000  Level Los Angeles Center
02:25AM 36.3533 -113.2464 60° Northeast 462 532 37,000  Level Los Angeles Center
02:26AM 36.4247 -113.0917 62° Northeast 467 537 37,000  Level Los Angeles Center
02:27AM 36.4878 -112.9469 62° Northeast 467 537 37,000  Level Los Angeles Center
02:28AM 36.5506 -112.8025 62° Northeast 467 537 37,000  Level Los Angeles Center
02:29AM 36.6114 -112.6603 62° Northeast 467 537 37,000  Level Los Angeles Center
02:31AM 36.7153 -112.4153 62° Northeast 463 533 37,000  Level Denver Center
02:32AM 36.7769 -112.2675 61° Northeast 468 539 37,000  Level Denver Center
02:33AM 36.8428 -112.1194 62° Northeast 474 545 37,000  Level Denver Center
02:34AM 36.9044 -111.9711 62° Northeast 479 551 37,000  Level Denver Center
02:35AM 36.9678 -111.8203 63° Northeast 479 551 37,000  Level Denver Center
02:36AM 37.0289 -111.6711 62° Northeast 479 551 37,000  Level Denver Center
02:37AM 37.0919 -111.5247 62° Northeast 479 551 37,000  Level Denver Center
02:38AM 37.1547 -111.3756 63° Northeast 479 551 37,000  Level Denver Center
02:39AM 37.2200 -111.2131 62° Northeast 479 551 37,000  Level Denver Center
02:40AM 37.2825 -111.0658 63° Northeast 479 551 37,000  Level Denver Center
02:41AM 37.3425 -110.9183 63° Northeast 479 551 37,000  Level Denver Center
02:42AM 37.4044 -110.7678 62° Northeast 479 551 37,000  Level Denver Center
02:43AM 37.4664 -110.6200 60° Northeast 479 551 37,000  Level Denver Center
02:44AM 37.5275 -110.4847 63° Northeast 484 557 37,000  Level Denver Center
02:45AM 37.5936 -110.3208 64° Northeast 484 557 37,000  Level Denver Center
02:46AM 37.6528 -110.1692 62° Northeast 479 551 37,000  Level Denver Center
02:47AM 37.7069 -110.0408 63° Northeast 473 544 37,000  Level Denver Center
02:48AM 37.7681 -109.8889 64° Northeast 473 544 37,000  Level Denver Center
02:49AM 37.8311 -109.7239 63° Northeast 473 544 37,000  Level Denver Center
02:50AM 37.8917 -109.5714 63° Northeast 478 550 37,000  Level Denver Center
02:51AM 37.9475 -109.4342 64° Northeast 478 550 37,000  Level Denver Center
02:52AM 38.0056 -109.2811 64° Northeast 478 550 37,000  Level Denver Center
02:53AM 38.0636 -109.1278 64° Northeast 476 548 37,000  Level Denver Center
02:54AM 38.1278 -108.9589 63° Northeast 481 554 37,000  Level Denver Center
02:55AM 38.1872 -108.8078 64° Northeast 481 554 37,000  Level Denver Center
02:56AM 38.2381 -108.6719 64° Northeast 476 548 37,000  Level Denver Center
02:57AM 38.2972 -108.5150 64° Northeast 476 548 37,000  Level Denver Center
02:58AM 38.3628 -108.3450 65° Northeast 481 554 37,000  Level Denver Center
02:59AM 38.4192 -108.1928 64° Northeast 481 554 37,000  Level Denver Center
03:00AM 38.4736 -108.0481 64° Northeast 481 554 37,000  Level Denver Center
03:01AM 38.5383 -107.8744 65° Northeast 481 554 37,000  Level Denver Center
03:02AM 38.5942 -107.7214 64° Northeast 481 554 37,000  Level Denver Center
03:03AM 38.6522 -107.5683 65° Northeast 481 554 37,000  Level Denver Center
03:04AM 38.7036 -107.4256 65° Northeast 481 554 37,000  Level Denver Center
03:05AM 38.7653 -107.2558 65° Northeast 476 548 37,000  Level Denver Center
03:06AM 38.8203 -107.1072 65° Northeast 482 555 37,000  Level Denver Center
03:07AM 38.8711 -106.9664 65° Northeast 477 549 37,000  Level Denver Center
03:08AM 38.9258 -106.8122 65° Northeast 477 549 37,000  Level Denver Center
03:09AM 38.9867 -106.6414 65° Northeast 477 549 37,000  Level Denver Center
03:10AM 39.0431 -106.4867 66° East 477 549 37,000  Level Denver Center
03:11AM 39.0931 -106.3447 66° East 482 555 37,000 -960 Level Denver Center
03:12AM 39.1472 -106.1867 65° Northeast 477 549 35,100 -2,700 Descending Denver Center
03:13AM 39.2092 -106.0122 67° East 482 555 31,700 -3,300 Descending Denver Center
03:14AM 39.2583 -105.8644 65° Northeast 464 534 28,600 -3,180 Descending Denver Center
03:15AM 39.3117 -105.7164 66° East 452 520 25,400 -2,940 Descending Denver Center
03:16AM 39.3589 -105.5764 62° Northeast 433 498 22,800 -2,220 Descending Denver Center
03:17AM 39.4058 -105.4600 61° Northeast 419 482 21,000 -2,400 Descending Denver Center
03:18AM 39.4589 -105.3383 61° Northeast 396 456 18,100 -2,640 Descending Denver Center
03:19AM 39.5097 -105.2192 60° Northeast 376 433 15,800 -2,520 Descending Denver Center
03:20AM 39.5586 -105.1078 61° Northeast 366 421 13,100 -2,400 Descending Denver Center
03:21AM 39.6031 -105.0017 61° Northeast 343 395 11,000 -1,860 Descending Denver Center
03:22AM 39.6475 -104.8983 54° Northeast 311 358 9,400 -1,140 Descending Denver Center
03:23AM 39.6833 -104.8333 57° Northeast 260 299 9,000 -780 Descending Denver TRACON
03:24AM 39.7167 -104.7667 57° Northeast 220 253 8,100 -900 Descending Denver TRACON
03:25AM 39.7500 -104.7000 38° Northeast 191 220 7,200 -840 Descending Denver TRACON
03:26AM 39.7833 -104.6667 360° North 148 170 6,500 -780 Descending Denver TRACON
03:27AM 39.8167 -104.6667 21° North 137 158 5,700 -840 Descending Denver TRACON
03:34AM 40.6807 -104.2292 201° Southwest  Level FlightAware Approximate
03:35AM 40.5668 -104.2876 201° Southwest  Level FlightAware Approximate
03:36AM 40.4528 -104.3457 201° Southwest  Level FlightAware Approximate